createdAt,value
2022-10-28T00:00:16.015Z,93.62
2022-10-28T00:02:44.016Z,93.42
2022-10-28T00:05:11.880Z,93.20
2022-10-28T00:07:39.588Z,93.24
2022-10-28T00:10:08.450Z,93.20
2022-10-28T00:12:39.359Z,92.68
2022-10-28T00:15:08.330Z,92.67
2022-10-28T00:17:37.379Z,92.63
2022-10-28T00:20:05.738Z,92.60
2022-10-28T00:22:33.428Z,92.46
2022-10-28T00:25:01.084Z,92.72
2022-10-28T00:27:29.716Z,92.63
2022-10-28T00:29:57.393Z,92.77
2022-10-28T00:32:25.065Z,93.12
2022-10-28T00:34:54.064Z,92.76
2022-10-28T00:37:21.844Z,92.93
2022-10-28T00:39:49.516Z,92.89
2022-10-28T00:42:20.359Z,93.23
2022-10-28T00:44:54.201Z,92.75
2022-10-28T00:47:32.381Z,93.08
2022-10-28T00:50:07.324Z,93.14
2022-10-28T00:52:35.076Z,92.69
2022-10-28T00:55:03.692Z,92.90
2022-10-28T00:57:33.132Z,93.27
2022-10-28T01:00:03.466Z,93.15
2022-10-28T01:02:34.706Z,93.21
2022-10-28T01:05:04.272Z,93.35
2022-10-28T01:07:32.144Z,93.25
2022-10-28T01:09:59.878Z,93.27
2022-10-28T01:12:33.502Z,93.25
2022-10-28T01:15:06.221Z,92.94
2022-10-28T01:17:50.541Z,93.06
2022-10-28T01:20:41.023Z,92.77
2022-10-28T01:23:15.045Z,92.41
2022-10-28T01:26:09.960Z,92.68
2022-10-28T01:29:08.909Z,92.94
2022-10-28T01:31:41.155Z,93.52
2022-10-28T01:34:20.573Z,92.91
2022-10-28T01:36:55.909Z,92.84
2022-10-28T01:39:29.856Z,93.22
2022-10-28T01:42:01.765Z,93.53
2022-10-28T01:44:32.468Z,93.73
2022-10-28T01:47:05.682Z,93.71
2022-10-28T01:49:39.201Z,93.86
2022-10-28T01:52:10.340Z,93.33
2022-10-28T01:54:39.613Z,93.37
2022-10-28T01:57:07.332Z,93.52
2022-10-28T01:59:35.752Z,93.14
2022-10-28T02:02:04.868Z,93.32
2022-10-28T02:04:32.759Z,93.62
2022-10-28T02:07:01.721Z,93.79
2022-10-28T02:09:38.915Z,93.78
2022-10-28T02:12:27.605Z,93.45
2022-10-28T02:15:16.065Z,93.31
2022-10-28T02:17:52.346Z,93.68
2022-10-28T02:20:29.922Z,93.48
2022-10-28T02:23:04.515Z,93.53
2022-10-28T02:25:34.620Z,93.40
2022-10-28T02:28:06.107Z,93.63
2022-10-28T02:30:38.241Z,93.63
2022-10-28T02:33:12.012Z,93.99
2022-10-28T02:35:40.839Z,93.88
2022-10-28T02:38:11.671Z,93.93
2022-10-28T02:40:40.321Z,93.70
2022-10-28T02:43:10.308Z,93.43
2022-10-28T02:45:41.236Z,93.79
2022-10-28T02:48:14.282Z,93.30
2022-10-28T02:50:46.021Z,93.47
2022-10-28T02:53:17.134Z,93.55
2022-10-28T02:55:46.737Z,93.53
2022-10-28T02:58:14.444Z,93.09
2022-10-28T03:00:45.049Z,93.32
2022-10-28T03:03:14.537Z,93.83
2022-10-28T03:05:42.243Z,94.16
2022-10-28T03:08:09.929Z,93.63
2022-10-28T03:10:37.588Z,93.53
2022-10-28T03:13:05.327Z,93.63
2022-10-28T03:15:33.002Z,93.49
2022-10-28T03:18:00.701Z,94.19
2022-10-28T03:20:31.054Z,93.67
2022-10-28T03:22:58.885Z,93.19
2022-10-28T03:25:26.614Z,92.93
2022-10-28T03:27:54.314Z,93.09
2022-10-28T03:30:22.037Z,92.85
2022-10-28T03:32:49.713Z,93.39
2022-10-28T03:35:17.801Z,93.59
2022-10-28T03:37:46.832Z,93.67
2022-10-28T03:40:14.644Z,93.03
2022-10-28T03:42:42.606Z,93.11
2022-10-28T03:45:11.533Z,92.64
2022-10-28T03:47:39.300Z,92.64
2022-10-28T03:50:07.973Z,92.98
2022-10-28T03:52:35.713Z,92.80
2022-10-28T03:55:05.401Z,92.88
2022-10-28T03:57:33.687Z,92.69
2022-10-28T04:00:01.402Z,92.76
2022-10-28T04:02:30.186Z,92.59
2022-10-28T04:04:58.008Z,93.66
2022-10-28T04:07:25.760Z,92.87
2022-10-28T04:09:53.497Z,93.62
2022-10-28T04:12:22.620Z,93.60
2022-10-28T04:14:50.388Z,93.71
2022-10-28T04:17:18.149Z,94.12
2022-10-28T04:19:45.913Z,93.95
2022-10-28T04:22:13.738Z,93.58
2022-10-28T04:24:41.448Z,93.10
2022-10-28T04:27:09.197Z,93.45
2022-10-28T04:29:38.342Z,93.34
2022-10-28T04:32:06.867Z,93.39
2022-10-28T04:34:34.612Z,93.54
2022-10-28T04:37:02.380Z,93.53
2022-10-28T04:39:31.481Z,93.76
2022-10-28T04:41:59.213Z,93.19
2022-10-28T04:44:26.991Z,93.24
2022-10-28T04:46:57.781Z,93.69
2022-10-28T04:49:25.689Z,93.83
2022-10-28T04:51:53.507Z,94.14
2022-10-28T04:54:21.265Z,93.89
2022-10-28T04:56:49.072Z,94.17
2022-10-28T04:59:16.868Z,95.66
2022-10-28T05:01:44.695Z,95.09
2022-10-28T05:04:13.955Z,94.51
2022-10-28T05:06:41.778Z,93.88
2022-10-28T05:09:09.517Z,94.32
2022-10-28T05:11:37.275Z,94.01
2022-10-28T05:14:05.185Z,94.41
2022-10-28T05:16:32.983Z,94.45
2022-10-28T05:19:00.902Z,94.94
2022-10-28T05:21:30.047Z,94.69
2022-10-28T05:23:58.217Z,94.73
2022-10-28T05:26:26.041Z,94.53
2022-10-28T05:28:53.778Z,94.47
2022-10-28T05:31:21.526Z,93.85
2022-10-28T05:33:49.226Z,93.73
2022-10-28T05:36:17.202Z,94.17
2022-10-28T05:38:46.450Z,94.10
2022-10-28T05:41:14.402Z,94.36
2022-10-28T05:43:42.162Z,93.98
2022-10-28T05:46:10.791Z,93.95
2022-10-28T05:48:38.538Z,94.06
2022-10-28T05:51:06.526Z,94.01
2022-10-28T05:53:34.249Z,94.77
2022-10-28T05:56:05.563Z,94.58
2022-10-28T05:58:33.318Z,94.09
2022-10-28T06:01:03.920Z,93.77
2022-10-28T06:03:31.756Z,93.48
2022-10-28T06:05:59.796Z,93.70
2022-10-28T06:08:27.794Z,93.71
2022-10-28T06:10:54.622Z,93.31
2022-10-28T06:13:23.923Z,93.22
2022-10-28T06:15:51.808Z,94.08
2022-10-28T06:18:19.836Z,93.49
2022-10-28T06:20:52.049Z,94.47
2022-10-28T06:23:19.814Z,94.15
2022-10-28T06:25:47.644Z,93.57
2022-10-28T06:28:15.445Z,93.95
2022-10-28T06:30:44.597Z,93.51
2022-10-28T06:33:12.352Z,93.45
2022-10-28T06:35:40.074Z,93.28
2022-10-28T06:38:09.604Z,94.03
2022-10-28T06:40:37.657Z,93.94
2022-10-28T06:43:06.586Z,93.10
2022-10-28T06:45:34.777Z,93.64
2022-10-28T06:48:07.338Z,93.60
2022-10-28T06:50:36.688Z,93.79
2022-10-28T06:53:04.574Z,93.49
2022-10-28T06:55:32.536Z,93.12
2022-10-28T06:58:00.648Z,93.80
2022-10-28T07:03:05.899Z,93.48
2022-10-28T07:05:34.007Z,93.51
2022-10-28T07:08:03.117Z,93.71
2022-10-28T07:10:30.943Z,95.26
2022-10-28T07:12:58.667Z,96.86
2022-10-28T07:15:26.383Z,97.51
2022-10-28T07:17:54.675Z,98.68
2022-10-28T07:20:25.815Z,98.19
2022-10-28T07:22:57.045Z,99.32
2022-10-28T07:25:24.810Z,99.79
2022-10-28T07:27:53.004Z,98.84
2022-10-28T07:30:21.018Z,99.09
2022-10-28T07:32:48.788Z,99.92
2022-10-28T07:35:16.808Z,99.85
2022-10-28T07:37:45.902Z,99.62
2022-10-28T07:40:14.169Z,99.79
2022-10-28T07:42:41.896Z,99.79
2022-10-28T07:45:10.264Z,100.00
2022-10-28T07:47:37.955Z,100.00
2022-10-28T07:50:07.049Z,100.00
2022-10-28T07:52:35.292Z,100.00
2022-10-28T07:55:05.073Z,100.00
2022-10-28T07:57:32.996Z,100.00
2022-10-28T08:00:00.708Z,100.00
2022-10-28T08:02:29.713Z,100.00
2022-10-28T08:04:57.439Z,100.00
2022-10-28T08:07:25.161Z,100.00
2022-10-28T08:09:53.273Z,100.00
2022-10-28T08:12:22.309Z,100.00
2022-10-28T08:14:50.696Z,100.00
2022-10-28T08:17:18.353Z,100.00
2022-10-28T08:19:46.014Z,100.00
2022-10-28T08:22:13.735Z,100.00
2022-10-28T08:24:41.524Z,100.00
2022-10-28T08:27:09.219Z,100.00
2022-10-28T08:29:38.391Z,100.00
2022-10-28T08:32:08.887Z,100.00
2022-10-28T08:34:39.351Z,100.00
2022-10-28T08:37:10.379Z,100.00
2022-10-28T08:39:41.248Z,100.00
2022-10-28T08:42:23.444Z,100.00
2022-10-28T08:45:04.928Z,100.00
2022-10-28T08:47:40.170Z,100.00
2022-10-28T08:50:13.856Z,100.00
2022-10-28T08:52:44.948Z,100.00
2022-10-28T08:55:15.684Z,100.00
2022-10-28T08:57:45.611Z,100.00
2022-10-28T09:00:22.010Z,100.00
2022-10-28T09:02:59.106Z,100.00
2022-10-28T09:05:28.212Z,100.00
2022-10-28T09:07:56.743Z,100.00
2022-10-28T09:10:37.676Z,100.00
2022-10-28T09:13:12.095Z,99.09
2022-10-28T09:15:47.729Z,99.84
2022-10-28T09:18:19.520Z,99.24
2022-10-28T09:20:53.174Z,97.59
2022-10-28T09:23:24.319Z,98.89
2022-10-28T09:26:00.996Z,99.83
2022-10-28T09:28:40.380Z,100.00
2022-10-28T09:31:14.422Z,100.00
2022-10-28T09:33:50.807Z,98.30
2022-10-28T09:36:22.520Z,98.11
2022-10-28T09:38:52.670Z,98.86
2022-10-28T09:41:22.706Z,94.79
2022-10-28T09:43:53.064Z,96.43
2022-10-28T09:46:23.377Z,96.01
2022-10-28T09:48:52.680Z,94.32
2022-10-28T09:51:28.093Z,96.21
2022-10-28T09:53:58.194Z,94.02
2022-10-28T09:56:26.668Z,92.66
2022-10-28T09:58:55.494Z,91.71
2022-10-28T10:01:24.734Z,92.46
2022-10-28T10:03:53.324Z,93.72
2022-10-28T10:06:25.095Z,94.76
2022-10-28T10:08:53.149Z,93.10
2022-10-28T10:11:27.508Z,93.81
2022-10-28T10:13:56.563Z,94.07
2022-10-28T10:16:35.638Z,93.05
2022-10-28T10:19:04.508Z,92.38
2022-10-28T10:21:43.807Z,93.50
2022-10-28T10:24:25.197Z,91.97
2022-10-28T10:26:53.742Z,92.45
2022-10-28T10:29:21.973Z,90.19
2022-10-28T10:32:05.149Z,89.83
2022-10-28T10:34:33.445Z,89.56
2022-10-28T10:39:37.632Z,88.82
2022-10-28T10:42:16.342Z,89.49
2022-10-28T10:44:45.356Z,88.87
2022-10-28T10:47:23.460Z,87.53
2022-10-28T10:49:52.038Z,88.53
2022-10-28T10:52:23.614Z,88.77
2022-10-28T10:55:00.108Z,88.30
2022-10-28T10:57:29.988Z,86.18
2022-10-28T10:59:58.131Z,86.90
2022-10-28T11:02:29.259Z,87.74
2022-10-28T11:04:59.718Z,88.33
2022-10-28T11:07:28.907Z,86.84
2022-10-28T11:09:56.755Z,86.91
2022-10-28T11:12:30.158Z,86.43
2022-10-28T11:14:59.279Z,87.57
2022-10-28T11:17:29.893Z,86.30
2022-10-28T11:19:58.756Z,86.47
2022-10-28T11:22:37.405Z,86.08
2022-10-28T11:25:34.657Z,87.84
2022-10-28T11:28:12.364Z,86.57
2022-10-28T11:30:47.767Z,85.35
2022-10-28T11:33:35.017Z,84.79
2022-10-28T11:36:12.776Z,86.11
2022-10-28T11:38:54.860Z,85.15
2022-10-28T11:41:32.834Z,85.08
2022-10-28T11:44:05.021Z,84.98
2022-10-28T11:46:39.149Z,85.03
2022-10-28T11:49:44.317Z,85.38
2022-10-28T11:52:21.830Z,84.94
2022-10-28T11:55:02.947Z,85.16
2022-10-28T11:57:39.322Z,86.38
2022-10-28T12:00:39.650Z,86.74
2022-10-28T12:03:22.168Z,87.03
2022-10-28T12:05:55.965Z,86.05
2022-10-28T12:08:36.061Z,85.53
2022-10-28T12:11:19.511Z,86.00
2022-10-28T12:13:52.253Z,86.90
2022-10-28T12:16:25.992Z,86.71
2022-10-28T12:18:56.801Z,87.28
2022-10-28T12:21:32.353Z,87.32
2022-10-28T12:24:00.586Z,87.16
2022-10-28T12:26:35.430Z,86.49
2022-10-28T12:29:05.243Z,87.17
2022-10-28T12:31:35.691Z,87.99
2022-10-28T12:34:07.067Z,86.53
2022-10-28T12:36:39.925Z,87.16
2022-10-28T12:39:14.062Z,86.85
2022-10-28T12:41:48.755Z,87.84
2022-10-28T12:44:20.131Z,87.33
2022-10-28T12:46:54.478Z,87.96
2022-10-28T12:49:26.671Z,87.79
2022-10-28T12:51:56.988Z,86.16
2022-10-28T12:54:29.645Z,87.65
2022-10-28T12:57:03.044Z,86.46
2022-10-28T12:59:33.469Z,86.66
2022-10-28T13:02:02.611Z,87.21
2022-10-28T13:04:30.611Z,87.90
2022-10-28T13:07:27.967Z,88.80
2022-10-28T13:10:06.035Z,87.13
2022-10-28T13:12:57.859Z,88.34
2022-10-28T13:16:25.691Z,88.56
2022-10-28T13:19:11.211Z,88.70
2022-10-28T13:22:05.888Z,87.77
2022-10-28T13:24:42.009Z,88.39
2022-10-28T13:27:13.463Z,88.33
2022-10-28T13:29:42.956Z,87.65
2022-10-28T13:32:32.778Z,88.17
2022-10-28T13:35:12.442Z,88.08
2022-10-28T13:37:40.969Z,88.17
2022-10-28T13:40:22.359Z,88.32
2022-10-28T13:42:50.548Z,88.21
2022-10-28T13:45:48.169Z,89.05
2022-10-28T13:48:47.883Z,89.47
2022-10-28T13:51:31.533Z,90.05
2022-10-28T13:53:59.420Z,89.70
2022-10-28T13:56:39.700Z,89.63
2022-10-28T13:59:19.813Z,90.11
2022-10-28T14:02:02.226Z,89.75
2022-10-28T14:04:37.315Z,90.71
2022-10-28T14:07:21.554Z,90.96
2022-10-28T14:09:52.477Z,90.88
2022-10-28T14:12:26.113Z,91.23
2022-10-28T14:14:58.351Z,91.35
2022-10-28T14:17:28.870Z,91.40
2022-10-28T14:19:56.715Z,90.50
2022-10-28T14:22:32.926Z,90.92
2022-10-28T14:25:00.923Z,90.96
2022-10-28T14:27:32.603Z,90.71
2022-10-28T14:30:25.934Z,90.83
2022-10-28T14:33:27.411Z,90.64
2022-10-28T14:36:08.439Z,90.35
2022-10-28T14:39:11.333Z,90.14
2022-10-28T14:41:46.617Z,90.30
2022-10-28T14:44:31.909Z,89.97
2022-10-28T14:47:11.736Z,90.43
2022-10-28T14:49:40.318Z,90.19
2022-10-28T14:52:10.924Z,89.96
2022-10-28T14:54:44.829Z,89.85
2022-10-28T14:57:12.653Z,90.14
2022-10-28T14:59:44.282Z,90.10
2022-10-28T15:02:14.145Z,90.49
2022-10-28T15:04:44.072Z,89.83
2022-10-28T15:07:14.096Z,89.59
2022-10-28T15:09:43.285Z,89.50
2022-10-28T15:12:12.397Z,89.72
2022-10-28T15:14:42.960Z,90.13
2022-10-28T15:17:14.081Z,90.19
2022-10-28T15:19:42.385Z,90.38
2022-10-28T15:22:21.057Z,90.35
2022-10-28T15:25:00.056Z,90.13
2022-10-28T15:27:30.180Z,89.97
2022-10-28T15:29:59.314Z,89.95
2022-10-28T15:32:29.740Z,90.00
2022-10-28T15:34:57.599Z,89.87
2022-10-28T15:37:27.679Z,89.57
2022-10-28T15:40:12.891Z,89.62
2022-10-28T15:42:42.575Z,89.72
2022-10-28T15:45:19.622Z,89.52
2022-10-28T15:47:48.256Z,89.00
2022-10-28T15:50:27.298Z,89.34
2022-10-28T15:52:57.520Z,89.44
2022-10-28T15:55:41.698Z,89.12
2022-10-28T15:58:33.700Z,88.75
2022-10-28T16:01:02.887Z,88.74
2022-10-28T16:03:43.570Z,89.36
2022-10-28T16:06:23.236Z,89.50
2022-10-28T16:09:00.753Z,89.76
2022-10-28T16:11:28.780Z,89.50
2022-10-28T16:13:56.492Z,89.38
2022-10-28T16:16:26.958Z,89.08
2022-10-28T16:19:10.351Z,89.04
2022-10-28T16:21:39.134Z,89.21
2022-10-28T16:24:07.920Z,89.10
2022-10-28T16:26:38.122Z,89.01
2022-10-28T16:29:05.848Z,88.86
2022-10-28T16:31:35.345Z,89.13
2022-10-28T16:34:03.066Z,88.77
2022-10-28T16:36:32.133Z,88.89
2022-10-28T16:38:59.786Z,88.96
2022-10-28T16:41:27.687Z,88.69
2022-10-28T16:43:55.937Z,88.98
2022-10-28T16:46:23.797Z,89.01
2022-10-28T16:48:52.867Z,88.40
2022-10-28T16:51:20.580Z,88.96
2022-10-28T16:53:49.587Z,89.25
2022-10-28T16:56:18.024Z,88.51
2022-10-28T16:58:46.155Z,88.73
2022-10-28T17:01:22.072Z,88.88
2022-10-28T17:03:49.875Z,88.57
2022-10-28T17:06:18.903Z,88.60
2022-10-28T17:09:02.372Z,88.63
2022-10-28T17:14:07.342Z,89.38
2022-10-28T17:16:38.029Z,89.68
2022-10-28T17:19:08.368Z,89.54
2022-10-28T17:21:37.427Z,89.32
2022-10-28T17:24:05.668Z,90.26
2022-10-28T17:26:33.355Z,89.84
2022-10-28T17:29:03.053Z,89.87
2022-10-28T17:31:30.758Z,89.67
2022-10-28T17:33:58.500Z,90.13
2022-10-28T17:36:27.198Z,89.35
2022-10-28T17:38:57.246Z,88.96
2022-10-28T17:41:25.253Z,88.06
2022-10-28T17:43:53.954Z,88.84
2022-10-28T17:46:21.987Z,89.80
2022-10-28T17:48:50.269Z,89.51
2022-10-28T17:51:20.046Z,88.63
2022-10-28T17:53:47.771Z,89.65
2022-10-28T17:56:16.846Z,88.85
2022-10-28T17:58:44.556Z,89.41
2022-10-28T18:01:12.601Z,88.93
2022-10-28T18:03:40.460Z,89.22
2022-10-28T18:06:11.321Z,89.01
2022-10-28T18:08:40.229Z,88.89
2022-10-28T18:11:09.702Z,89.41
2022-10-28T18:13:39.875Z,87.25
2022-10-28T18:16:09.443Z,86.97
2022-10-28T18:18:42.013Z,86.41
2022-10-28T18:21:11.203Z,86.93
2022-10-28T18:23:39.284Z,86.74
2022-10-28T18:26:08.543Z,86.33
2022-10-28T18:28:36.894Z,86.41
2022-10-28T18:31:07.487Z,86.68
2022-10-28T18:33:36.095Z,86.77
2022-10-28T18:36:05.677Z,86.57
2022-10-28T18:38:34.090Z,86.10
2022-10-28T18:41:02.493Z,85.96
2022-10-28T18:43:30.370Z,86.45
2022-10-28T18:46:01.095Z,86.33
2022-10-28T18:48:33.350Z,86.46
2022-10-28T18:51:09.301Z,86.67
2022-10-28T18:53:37.741Z,86.06
2022-10-28T18:56:06.594Z,86.01
2022-10-28T18:58:34.771Z,86.27
2022-10-28T19:01:07.330Z,86.71
2022-10-28T19:03:36.673Z,86.60
2022-10-28T19:06:06.146Z,86.50
2022-10-28T19:08:34.199Z,86.49
2022-10-28T19:11:03.608Z,86.33
2022-10-28T19:13:33.434Z,86.67
2022-10-28T19:16:01.417Z,86.33
2022-10-28T19:18:35.209Z,86.47
2022-10-28T19:21:05.471Z,86.42
2022-10-28T19:23:33.323Z,86.54
2022-10-28T19:26:03.414Z,86.75
2022-10-28T19:28:31.519Z,86.93
2022-10-28T19:31:03.040Z,86.90
2022-10-28T19:33:31.562Z,87.07
2022-10-28T19:36:04.831Z,87.03
2022-10-28T19:38:33.666Z,86.95
2022-10-28T19:41:06.186Z,86.91
2022-10-28T19:43:34.186Z,87.04
2022-10-28T19:46:06.313Z,87.31
2022-10-28T19:48:34.179Z,87.22
2022-10-28T19:51:02.582Z,87.32
2022-10-28T19:53:31.670Z,87.13
2022-10-28T19:56:00.548Z,87.64
2022-10-28T19:58:30.469Z,87.62
2022-10-28T20:00:59.953Z,87.35
2022-10-28T20:03:31.485Z,87.81
2022-10-28T20:06:06.725Z,87.38
2022-10-28T20:08:36.796Z,87.73
2022-10-28T20:11:06.123Z,87.74
2022-10-28T20:13:34.683Z,88.07
2022-10-28T20:16:03.877Z,87.80
2022-10-28T20:18:32.128Z,87.88
2022-10-28T20:21:04.960Z,88.04
2022-10-28T20:23:33.125Z,87.99
2022-10-28T20:26:03.010Z,88.01
2022-10-28T20:28:30.762Z,88.13
2022-10-28T20:31:00.584Z,87.90
2022-10-28T20:33:30.484Z,87.78
2022-10-28T20:35:58.475Z,88.27
2022-10-28T20:38:26.591Z,88.32
2022-10-28T20:40:55.696Z,88.50
2022-10-28T20:43:26.061Z,88.92
2022-10-28T20:45:58.595Z,89.34
2022-10-28T20:48:27.098Z,89.34
2022-10-28T20:50:56.318Z,89.18
2022-10-28T20:53:25.563Z,89.59
2022-10-28T20:55:54.542Z,88.67
2022-10-28T20:58:24.943Z,89.63
2022-10-28T21:00:53.618Z,89.51
2022-10-28T21:03:21.711Z,89.51
2022-10-28T21:05:49.570Z,89.93
2022-10-28T21:08:17.251Z,89.77
2022-10-28T21:10:44.906Z,90.30
2022-10-28T21:13:12.628Z,90.42
2022-10-28T21:15:42.007Z,90.85
2022-10-28T21:18:09.764Z,90.49
2022-10-28T21:20:38.731Z,90.39
2022-10-28T21:23:07.091Z,90.42
2022-10-28T21:25:35.063Z,90.78
2022-10-28T21:28:03.914Z,90.59
2022-10-28T21:30:31.818Z,90.90
2022-10-28T21:33:00.823Z,90.86
2022-10-28T21:35:28.503Z,90.73
2022-10-28T21:37:57.107Z,90.29
2022-10-28T21:40:25.075Z,90.38
2022-10-28T21:42:52.745Z,91.47
2022-10-28T21:45:24.109Z,90.78
2022-10-28T21:47:55.449Z,90.73
2022-10-28T21:50:24.818Z,90.46
2022-10-28T21:52:52.534Z,90.44
2022-10-28T21:55:26.834Z,90.86
2022-10-28T21:58:01.528Z,90.93
2022-10-28T22:00:30.908Z,91.35
2022-10-28T22:02:58.613Z,90.88
2022-10-28T22:05:27.701Z,90.74
2022-10-28T22:07:55.810Z,91.20
2022-10-28T22:10:23.692Z,90.80
2022-10-28T22:12:51.386Z,91.61
2022-10-28T22:15:19.063Z,92.13
2022-10-28T22:17:46.824Z,92.16
2022-10-28T22:20:16.239Z,91.79
2022-10-28T22:22:45.394Z,91.74
2022-10-28T22:25:13.083Z,91.80
2022-10-28T22:27:42.423Z,91.79
2022-10-28T22:30:12.299Z,91.89
2022-10-28T22:32:40.159Z,92.34
2022-10-28T22:35:11.308Z,91.82
2022-10-28T22:37:39.281Z,91.67
2022-10-28T22:40:10.079Z,91.49
2022-10-28T22:42:38.156Z,91.39
2022-10-28T22:45:06.921Z,92.32
2022-10-28T22:47:35.047Z,91.56
2022-10-28T22:50:04.290Z,91.77
2022-10-28T22:52:32.104Z,92.02
2022-10-28T22:55:00.184Z,91.60
2022-10-28T22:57:31.327Z,91.80
2022-10-28T22:59:59.206Z,92.39
2022-10-28T23:02:27.412Z,92.41
2022-10-28T23:04:55.548Z,92.37
2022-10-28T23:07:23.372Z,91.62
2022-10-28T23:09:54.089Z,91.55
2022-10-28T23:12:22.114Z,91.61
2022-10-28T23:14:54.174Z,91.78
2022-10-28T23:17:21.912Z,91.05
2022-10-28T23:19:49.673Z,91.33
2022-10-28T23:22:17.395Z,91.42
2022-10-28T23:24:47.663Z,91.86
2022-10-28T23:27:15.408Z,92.17
2022-10-28T23:29:43.287Z,92.18
2022-10-28T23:32:12.626Z,92.21
2022-10-28T23:34:40.424Z,92.03
2022-10-28T23:37:11.061Z,92.08
2022-10-28T23:39:38.874Z,92.43
2022-10-28T23:42:06.813Z,92.34
2022-10-28T23:44:34.706Z,91.64
2022-10-28T23:47:03.068Z,91.45
2022-10-28T23:49:32.301Z,91.35
2022-10-28T23:52:00.097Z,91.36
2022-10-28T23:54:27.875Z,91.04
2022-10-28T23:56:55.616Z,91.08
2022-10-28T23:59:26.269Z,91.20
